sensor_id;sensor_type;location;lat;lon;timestamp;temperature;humidity
69543;SHT31;56762;49.494;11.768;2023-11-22T00:01:23;4.95;81.55
69543;SHT31;56762;49.494;11.768;2023-11-22T00:03:52;4.92;78.45
69543;SHT31;56762;49.494;11.768;2023-11-22T00:06:20;4.97;79.57
69543;SHT31;56762;49.494;11.768;2023-11-22T00:08:48;5.09;80.15
69543;SHT31;56762;49.494;11.768;2023-11-22T00:11:16;4.92;77.81
69543;SHT31;56762;49.494;11.768;2023-11-22T00:13:44;4.58;76.80
69543;SHT31;56762;49.494;11.768;2023-11-22T00:16:12;4.36;78.51
69543;SHT31;56762;49.494;11.768;2023-11-22T00:18:41;4.47;84.48
69543;SHT31;56762;49.494;11.768;2023-11-22T00:21:09;4.37;78.39
69543;SHT31;56762;49.494;11.768;2023-11-22T00:23:38;4.37;78.81
69543;SHT31;56762;49.494;11.768;2023-11-22T00:26:06;4.30;79.01
69543;SHT31;56762;49.494;11.768;2023-11-22T00:28:34;4.44;82.20
69543;SHT31;56762;49.494;11.768;2023-11-22T00:31:02;4.41;78.23
69543;SHT31;56762;49.494;11.768;2023-11-22T00:33:30;4.40;82.32
69543;SHT31;56762;49.494;11.768;2023-11-22T00:35:59;4.61;80.99
69543;SHT31;56762;49.494;11.768;2023-11-22T00:38:31;4.48;79.12
69543;SHT31;56762;49.494;11.768;2023-11-22T00:41:02;4.48;79.30
69543;SHT31;56762;49.494;11.768;2023-11-22T00:43:30;4.69;79.92
69543;SHT31;56762;49.494;11.768;2023-11-22T00:45:57;5.03;82.50
69543;SHT31;56762;49.494;11.768;2023-11-22T00:48:26;5.11;77.20
69543;SHT31;56762;49.494;11.768;2023-11-22T00:50:53;5.03;77.77
69543;SHT31;56762;49.494;11.768;2023-11-22T00:53:23;4.82;77.51
69543;SHT31;56762;49.494;11.768;2023-11-22T00:55:51;4.91;79.53
69543;SHT31;56762;49.494;11.768;2023-11-22T00:58:19;4.72;77.70
69543;SHT31;56762;49.494;11.768;2023-11-22T01:00:47;4.69;78.70
69543;SHT31;56762;49.494;11.768;2023-11-22T01:03:15;4.65;79.15
69543;SHT31;56762;49.494;11.768;2023-11-22T01:05:43;4.47;78.29
69543;SHT31;56762;49.494;11.768;2023-11-22T01:08:13;4.42;79.39
69543;SHT31;56762;49.494;11.768;2023-11-22T01:10:42;4.38;79.78
69543;SHT31;56762;49.494;11.768;2023-11-22T01:13:10;4.29;79.20
69543;SHT31;56762;49.494;11.768;2023-11-22T01:15:38;4.27;79.27
69543;SHT31;56762;49.494;11.768;2023-11-22T01:18:05;4.18;79.35
69543;SHT31;56762;49.494;11.768;2023-11-22T01:20:33;4.13;78.97
69543;SHT31;56762;49.494;11.768;2023-11-22T01:23:01;4.20;79.36
69543;SHT31;56762;49.494;11.768;2023-11-22T01:25:29;4.20;80.42
69543;SHT31;56762;49.494;11.768;2023-11-22T01:27:58;4.10;80.20
69543;SHT31;56762;49.494;11.768;2023-11-22T01:30:27;3.86;77.94
69543;SHT31;56762;49.494;11.768;2023-11-22T01:32:55;3.89;79.53
69543;SHT31;56762;49.494;11.768;2023-11-22T01:35:23;3.96;82.35
69543;SHT31;56762;49.494;11.768;2023-11-22T01:37:51;3.92;79.34
69543;SHT31;56762;49.494;11.768;2023-11-22T01:40:19;3.86;78.27
69543;SHT31;56762;49.494;11.768;2023-11-22T01:42:47;3.78;80.00
69543;SHT31;56762;49.494;11.768;2023-11-22T01:45:16;3.73;78.75
69543;SHT31;56762;49.494;11.768;2023-11-22T01:47:45;3.76;78.86
69543;SHT31;56762;49.494;11.768;2023-11-22T01:50:13;3.82;79.39
69543;SHT31;56762;49.494;11.768;2023-11-22T01:52:43;3.66;78.91
69543;SHT31;56762;49.494;11.768;2023-11-22T01:55:12;3.72;79.99
69543;SHT31;56762;49.494;11.768;2023-11-22T01:57:40;3.69;78.19
69543;SHT31;56762;49.494;11.768;2023-11-22T02:00:08;3.58;78.51
69543;SHT31;56762;49.494;11.768;2023-11-22T02:02:43;3.80;78.75
69543;SHT31;56762;49.494;11.768;2023-11-22T02:05:11;3.80;83.26
69543;SHT31;56762;49.494;11.768;2023-11-22T02:07:40;3.73;76.86
69543;SHT31;56762;49.494;11.768;2023-11-22T02:10:09;3.56;77.14
69543;SHT31;56762;49.494;11.768;2023-11-22T02:12:36;3.55;79.35
69543;SHT31;56762;49.494;11.768;2023-11-22T02:15:06;3.58;81.39
69543;SHT31;56762;49.494;11.768;2023-11-22T02:17:34;3.62;79.87
69543;SHT31;56762;49.494;11.768;2023-11-22T02:20:05;3.63;79.94
69543;SHT31;56762;49.494;11.768;2023-11-22T02:22:42;3.66;79.50
69543;SHT31;56762;49.494;11.768;2023-11-22T02:25:12;3.62;80.41
69543;SHT31;56762;49.494;11.768;2023-11-22T02:27:40;3.55;78.33
69543;SHT31;56762;49.494;11.768;2023-11-22T02:30:09;3.51;78.86
69543;SHT31;56762;49.494;11.768;2023-11-22T02:32:37;3.62;80.17
69543;SHT31;56762;49.494;11.768;2023-11-22T02:35:07;3.55;78.05
69543;SHT31;56762;49.494;11.768;2023-11-22T02:37:35;3.68;81.05
69543;SHT31;56762;49.494;11.768;2023-11-22T02:40:06;3.66;78.45
69543;SHT31;56762;49.494;11.768;2023-11-22T02:42:37;3.89;83.48
69543;SHT31;56762;49.494;11.768;2023-11-22T02:45:06;3.94;76.66
69543;SHT31;56762;49.494;11.768;2023-11-22T02:47:34;3.70;76.50
69543;SHT31;56762;49.494;11.768;2023-11-22T02:50:02;3.80;78.59
69543;SHT31;56762;49.494;11.768;2023-11-22T02:52:32;3.80;78.92
69543;SHT31;56762;49.494;11.768;2023-11-22T02:55:00;3.56;76.92
69543;SHT31;56762;49.494;11.768;2023-11-22T02:57:28;3.42;77.31
69543;SHT31;56762;49.494;11.768;2023-11-22T02:59:57;3.35;78.06
69543;SHT31;56762;49.494;11.768;2023-11-22T03:02:24;3.27;78.13
69543;SHT31;56762;49.494;11.768;2023-11-22T03:04:52;3.22;78.23
69543;SHT31;56762;49.494;11.768;2023-11-22T03:07:20;3.17;82.12
69543;SHT31;56762;49.494;11.768;2023-11-22T03:09:48;3.20;79.56
69543;SHT31;56762;49.494;11.768;2023-11-22T03:12:16;3.08;78.66
69543;SHT31;56762;49.494;11.768;2023-11-22T03:14:44;3.04;79.39
69543;SHT31;56762;49.494;11.768;2023-11-22T03:17:14;3.11;79.63
69543;SHT31;56762;49.494;11.768;2023-11-22T03:19:42;3.12;80.59
69543;SHT31;56762;49.494;11.768;2023-11-22T03:22:11;3.20;79.08
69543;SHT31;56762;49.494;11.768;2023-11-22T03:24:39;3.35;80.68
69543;SHT31;56762;49.494;11.768;2023-11-22T03:27:07;3.38;83.50
69543;SHT31;56762;49.494;11.768;2023-11-22T03:29:37;3.11;77.20
69543;SHT31;56762;49.494;11.768;2023-11-22T03:32:05;2.96;81.12
69543;SHT31;56762;49.494;11.768;2023-11-22T03:34:35;3.10;82.13
69543;SHT31;56762;49.494;11.768;2023-11-22T03:37:03;3.08;78.05
69543;SHT31;56762;49.494;11.768;2023-11-22T03:39:31;2.99;78.40
69543;SHT31;56762;49.494;11.768;2023-11-22T03:41:59;2.69;78.75
69543;SHT31;56762;49.494;11.768;2023-11-22T03:44:26;2.72;81.08
69543;SHT31;56762;49.494;11.768;2023-11-22T03:46:54;2.56;79.47
69543;SHT31;56762;49.494;11.768;2023-11-22T03:49:23;2.61;83.11
69543;SHT31;56762;49.494;11.768;2023-11-22T03:51:52;2.80;78.85
69543;SHT31;56762;49.494;11.768;2023-11-22T03:54:20;2.75;79.00
69543;SHT31;56762;49.494;11.768;2023-11-22T03:56:48;2.67;79.35
69543;SHT31;56762;49.494;11.768;2023-11-22T03:59:16;2.72;80.80
69543;SHT31;56762;49.494;11.768;2023-11-22T04:01:44;2.99;83.14
69543;SHT31;56762;49.494;11.768;2023-11-22T04:04:11;3.00;78.29
69543;SHT31;56762;49.494;11.768;2023-11-22T04:06:39;3.04;83.89
69543;SHT31;56762;49.494;11.768;2023-11-22T04:09:08;3.18;83.74
69543;SHT31;56762;49.494;11.768;2023-11-22T04:11:39;3.25;77.77
69543;SHT31;56762;49.494;11.768;2023-11-22T04:14:06;3.49;80.81
69543;SHT31;56762;49.494;11.768;2023-11-22T04:16:34;3.46;78.61
69543;SHT31;56762;49.494;11.768;2023-11-22T04:19:03;3.15;77.17
69543;SHT31;56762;49.494;11.768;2023-11-22T04:21:31;3.08;77.62
69543;SHT31;56762;49.494;11.768;2023-11-22T04:23:59;2.81;78.59
69543;SHT31;56762;49.494;11.768;2023-11-22T04:26:29;2.87;80.45
69543;SHT31;56762;49.494;11.768;2023-11-22T04:28:56;2.93;79.64
69543;SHT31;56762;49.494;11.768;2023-11-22T04:31:25;2.89;77.83
69543;SHT31;56762;49.494;11.768;2023-11-22T04:33:53;3.00;80.91
69543;SHT31;56762;49.494;11.768;2023-11-22T04:36:21;3.05;77.85
69543;SHT31;56762;49.494;11.768;2023-11-22T04:38:51;2.80;77.82
69543;SHT31;56762;49.494;11.768;2023-11-22T04:41:18;2.60;78.52
69543;SHT31;56762;49.494;11.768;2023-11-22T04:43:48;2.50;80.06
69543;SHT31;56762;49.494;11.768;2023-11-22T04:46:16;2.48;82.02
69543;SHT31;56762;49.494;11.768;2023-11-22T04:48:43;2.40;80.11
69543;SHT31;56762;49.494;11.768;2023-11-22T04:51:12;2.53;82.82
69543;SHT31;56762;49.494;11.768;2023-11-22T04:53:40;2.90;85.09
69543;SHT31;56762;49.494;11.768;2023-11-22T04:56:10;2.91;79.43
69543;SHT31;56762;49.494;11.768;2023-11-22T04:58:38;3.11;81.06
69543;SHT31;56762;49.494;11.768;2023-11-22T05:01:07;3.01;78.03
69543;SHT31;56762;49.494;11.768;2023-11-22T05:03:36;2.89;79.97
69543;SHT31;56762;49.494;11.768;2023-11-22T05:06:05;2.77;78.73
69543;SHT31;56762;49.494;11.768;2023-11-22T05:08:33;2.70;81.33
69543;SHT31;56762;49.494;11.768;2023-11-22T05:11:01;2.69;79.79
69543;SHT31;56762;49.494;11.768;2023-11-22T05:13:30;3.08;81.85
69543;SHT31;56762;49.494;11.768;2023-11-22T05:15:58;3.10;79.35
69543;SHT31;56762;49.494;11.768;2023-11-22T05:18:28;3.32;79.75
69543;SHT31;56762;49.494;11.768;2023-11-22T05:20:56;3.39;77.17
69543;SHT31;56762;49.494;11.768;2023-11-22T05:23:24;3.34;78.23
69543;SHT31;56762;49.494;11.768;2023-11-22T05:25:52;3.65;82.53
69543;SHT31;56762;49.494;11.768;2023-11-22T05:28:20;3.73;80.40
69543;SHT31;56762;49.494;11.768;2023-11-22T05:30:48;3.76;77.58
69543;SHT31;56762;49.494;11.768;2023-11-22T05:33:16;3.93;78.72
69543;SHT31;56762;49.494;11.768;2023-11-22T05:35:45;3.90;74.49
69543;SHT31;56762;49.494;11.768;2023-11-22T05:38:14;3.96;77.10
69543;SHT31;56762;49.494;11.768;2023-11-22T05:40:42;3.93;82.83
69543;SHT31;56762;49.494;11.768;2023-11-22T05:43:09;3.93;78.27
69543;SHT31;56762;49.494;11.768;2023-11-22T05:45:38;3.90;75.55
69543;SHT31;56762;49.494;11.768;2023-11-22T05:48:06;3.31;75.35
69543;SHT31;56762;49.494;11.768;2023-11-22T05:50:34;2.93;76.89
69543;SHT31;56762;49.494;11.768;2023-11-22T05:53:03;2.86;77.82
69543;SHT31;56762;49.494;11.768;2023-11-22T05:55:32;2.86;78.82
69543;SHT31;56762;49.494;11.768;2023-11-22T05:57:59;2.80;77.99
69543;SHT31;56762;49.494;11.768;2023-11-22T06:00:27;2.91;79.72
69543;SHT31;56762;49.494;11.768;2023-11-22T06:02:55;2.87;77.69
69543;SHT31;56762;49.494;11.768;2023-11-22T06:05:23;2.70;77.52
69543;SHT31;56762;49.494;11.768;2023-11-22T06:07:52;2.76;78.27
69543;SHT31;56762;49.494;11.768;2023-11-22T06:10:21;2.59;78.34
69543;SHT31;56762;49.494;11.768;2023-11-22T06:12:49;2.63;81.83
69543;SHT31;56762;49.494;11.768;2023-11-22T06:15:17;2.69;81.39
69543;SHT31;56762;49.494;11.768;2023-11-22T06:17:47;2.53;78.28
69543;SHT31;56762;49.494;11.768;2023-11-22T06:20:16;2.49;78.89
69543;SHT31;56762;49.494;11.768;2023-11-22T06:22:44;2.33;78.58
69543;SHT31;56762;49.494;11.768;2023-11-22T06:25:12;2.25;78.60
69543;SHT31;56762;49.494;11.768;2023-11-22T06:27:41;2.15;79.09
69543;SHT31;56762;49.494;11.768;2023-11-22T06:30:10;2.11;79.48
69543;SHT31;56762;49.494;11.768;2023-11-22T06:32:38;2.04;79.78
69543;SHT31;56762;49.494;11.768;2023-11-22T06:35:07;2.11;79.97
69543;SHT31;56762;49.494;11.768;2023-11-22T06:37:35;1.99;79.93
69543;SHT31;56762;49.494;11.768;2023-11-22T06:40:04;2.05;80.89
69543;SHT31;56762;49.494;11.768;2023-11-22T06:42:32;2.17;80.47
69543;SHT31;56762;49.494;11.768;2023-11-22T06:45:03;2.09;79.00
69543;SHT31;56762;49.494;11.768;2023-11-22T06:47:33;2.04;79.47
69543;SHT31;56762;49.494;11.768;2023-11-22T06:50:01;1.88;79.43
69543;SHT31;56762;49.494;11.768;2023-11-22T06:52:30;1.94;80.04
69543;SHT31;56762;49.494;11.768;2023-11-22T06:54:59;2.04;80.31
69543;SHT31;56762;49.494;11.768;2023-11-22T06:57:27;1.97;78.99
69543;SHT31;56762;49.494;11.768;2023-11-22T06:59:56;2.18;86.09
69543;SHT31;56762;49.494;11.768;2023-11-22T07:02:25;2.28;78.28
69543;SHT31;56762;49.494;11.768;2023-11-22T07:04:53;2.53;77.93
69543;SHT31;56762;49.494;11.768;2023-11-22T07:07:21;2.36;77.22
69543;SHT31;56762;49.494;11.768;2023-11-22T07:09:49;2.38;79.36
69543;SHT31;56762;49.494;11.768;2023-11-22T07:12:17;2.30;77.82
69543;SHT31;56762;49.494;11.768;2023-11-22T07:14:46;2.24;77.73
69543;SHT31;56762;49.494;11.768;2023-11-22T07:17:16;2.45;82.23
69543;SHT31;56762;49.494;11.768;2023-11-22T07:19:46;2.59;78.90
69543;SHT31;56762;49.494;11.768;2023-11-22T07:22:15;2.91;83.05
69543;SHT31;56762;49.494;11.768;2023-11-22T07:24:46;2.96;75.61
69543;SHT31;56762;49.494;11.768;2023-11-22T07:27:17;2.86;80.23
69543;SHT31;56762;49.494;11.768;2023-11-22T07:29:46;2.75;76.92
69543;SHT31;56762;49.494;11.768;2023-11-22T07:32:13;2.91;78.77
69543;SHT31;56762;49.494;11.768;2023-11-22T07:34:42;2.70;76.30
69543;SHT31;56762;49.494;11.768;2023-11-22T07:37:11;2.75;79.44
69543;SHT31;56762;49.494;11.768;2023-11-22T07:39:39;2.79;78.99
69543;SHT31;56762;49.494;11.768;2023-11-22T07:42:09;2.83;78.06
69543;SHT31;56762;49.494;11.768;2023-11-22T07:44:37;2.99;79.01
69543;SHT31;56762;49.494;11.768;2023-11-22T07:47:06;2.96;76.10
69543;SHT31;56762;49.494;11.768;2023-11-22T07:49:38;3.07;76.52
69543;SHT31;56762;49.494;11.768;2023-11-22T07:52:07;3.45;82.39
69543;SHT31;56762;49.494;11.768;2023-11-22T07:54:41;3.51;76.10
69543;SHT31;56762;49.494;11.768;2023-11-22T07:57:09;3.21;74.22
69543;SHT31;56762;49.494;11.768;2023-11-22T07:59:37;3.10;76.26
69543;SHT31;56762;49.494;11.768;2023-11-22T08:02:05;3.25;80.69
69543;SHT31;56762;49.494;11.768;2023-11-22T08:04:37;3.17;75.36
69543;SHT31;56762;49.494;11.768;2023-11-22T08:07:07;2.96;75.44
69543;SHT31;56762;49.494;11.768;2023-11-22T08:09:37;2.80;77.38
69543;SHT31;56762;49.494;11.768;2023-11-22T08:12:07;2.79;76.92
69543;SHT31;56762;49.494;11.768;2023-11-22T08:14:37;2.61;77.16
69543;SHT31;56762;49.494;11.768;2023-11-22T08:17:07;2.75;78.38
69543;SHT31;56762;49.494;11.768;2023-11-22T08:19:35;2.61;76.19
69543;SHT31;56762;49.494;11.768;2023-11-22T08:22:03;2.43;77.54
69543;SHT31;56762;49.494;11.768;2023-11-22T08:24:31;2.39;77.52
69543;SHT31;56762;49.494;11.768;2023-11-22T08:26:59;2.48;78.50
69543;SHT31;56762;49.494;11.768;2023-11-22T08:29:28;2.42;78.66
69543;SHT31;56762;49.494;11.768;2023-11-22T08:31:57;2.46;78.97
69543;SHT31;56762;49.494;11.768;2023-11-22T08:34:24;2.75;80.11
69543;SHT31;56762;49.494;11.768;2023-11-22T08:36:52;2.73;76.82
69543;SHT31;56762;49.494;11.768;2023-11-22T08:39:21;2.52;76.75
69543;SHT31;56762;49.494;11.768;2023-11-22T08:41:48;2.49;77.85
69543;SHT31;56762;49.494;11.768;2023-11-22T08:44:17;2.67;79.13
69543;SHT31;56762;49.494;11.768;2023-11-22T08:46:47;2.70;78.80
69543;SHT31;56762;49.494;11.768;2023-11-22T08:49:16;2.53;76.79
69543;SHT31;56762;49.494;11.768;2023-11-22T08:51:44;2.33;77.18
69543;SHT31;56762;49.494;11.768;2023-11-22T08:54:13;2.33;78.33
69543;SHT31;56762;49.494;11.768;2023-11-22T08:56:40;2.08;77.82
69543;SHT31;56762;49.494;11.768;2023-11-22T08:59:09;1.94;78.45
69543;SHT31;56762;49.494;11.768;2023-11-22T09:01:37;1.81;79.33
69543;SHT31;56762;49.494;11.768;2023-11-22T09:04:08;1.87;79.44
69543;SHT31;56762;49.494;11.768;2023-11-22T09:06:36;1.99;82.79
69543;SHT31;56762;49.494;11.768;2023-11-22T09:09:04;1.98;78.70
69543;SHT31;56762;49.494;11.768;2023-11-22T09:11:32;2.07;79.00
69543;SHT31;56762;49.494;11.768;2023-11-22T09:14:01;2.05;79.31
69543;SHT31;56762;49.494;11.768;2023-11-22T09:16:35;1.91;80.22
69543;SHT31;56762;49.494;11.768;2023-11-22T09:19:02;1.90;79.41
69543;SHT31;56762;49.494;11.768;2023-11-22T09:21:34;2.02;79.62
69543;SHT31;56762;49.494;11.768;2023-11-22T09:24:02;2.02;78.90
69543;SHT31;56762;49.494;11.768;2023-11-22T09:26:32;1.99;78.33
69543;SHT31;56762;49.494;11.768;2023-11-22T09:29:00;2.12;80.07
69543;SHT31;56762;49.494;11.768;2023-11-22T09:31:28;2.26;78.71
69543;SHT31;56762;49.494;11.768;2023-11-22T09:33:57;2.33;79.06
69543;SHT31;56762;49.494;11.768;2023-11-22T09:36:25;2.39;77.99
69543;SHT31;56762;49.494;11.768;2023-11-22T09:38:55;2.35;77.66
69543;SHT31;56762;49.494;11.768;2023-11-22T09:41:23;2.38;78.50
69543;SHT31;56762;49.494;11.768;2023-11-22T09:43:52;2.70;79.91
69543;SHT31;56762;49.494;11.768;2023-11-22T09:46:22;2.73;77.30
69543;SHT31;56762;49.494;11.768;2023-11-22T09:48:51;2.83;78.44
69543;SHT31;56762;49.494;11.768;2023-11-22T09:51:24;2.91;78.21
69543;SHT31;56762;49.494;11.768;2023-11-22T09:53:57;2.86;76.88
69543;SHT31;56762;49.494;11.768;2023-11-22T09:56:27;2.89;77.40
69543;SHT31;56762;49.494;11.768;2023-11-22T09:58:58;2.80;76.57
69543;SHT31;56762;49.494;11.768;2023-11-22T10:01:28;2.64;77.07
69543;SHT31;56762;49.494;11.768;2023-11-22T10:03:59;2.72;79.68
69543;SHT31;56762;49.494;11.768;2023-11-22T10:06:27;3.18;83.03
69543;SHT31;56762;49.494;11.768;2023-11-22T10:09:01;3.31;77.89
69543;SHT31;56762;49.494;11.768;2023-11-22T10:11:34;3.20;75.78
69543;SHT31;56762;49.494;11.768;2023-11-22T10:14:03;3.10;76.02
69543;SHT31;56762;49.494;11.768;2023-11-22T10:16:31;3.01;75.93
69543;SHT31;56762;49.494;11.768;2023-11-22T10:18:59;2.84;76.19
69543;SHT31;56762;49.494;11.768;2023-11-22T10:21:28;2.81;78.86
69543;SHT31;56762;49.494;11.768;2023-11-22T10:24:02;2.90;79.58
69543;SHT31;56762;49.494;11.768;2023-11-22T10:26:31;2.87;76.43
69543;SHT31;56762;49.494;11.768;2023-11-22T10:28:59;2.93;77.37
69543;SHT31;56762;49.494;11.768;2023-11-22T10:31:28;3.01;77.43
69543;SHT31;56762;49.494;11.768;2023-11-22T10:33:55;3.00;76.38
69543;SHT31;56762;49.494;11.768;2023-11-22T10:36:25;2.89;75.93
69543;SHT31;56762;49.494;11.768;2023-11-22T10:38:54;2.83;76.82
69543;SHT31;56762;49.494;11.768;2023-11-22T10:41:23;2.86;77.95
69543;SHT31;56762;49.494;11.768;2023-11-22T10:43:52;2.93;77.93
69543;SHT31;56762;49.494;11.768;2023-11-22T10:46:27;2.93;76.23
69543;SHT31;56762;49.494;11.768;2023-11-22T10:48:55;2.93;76.79
69543;SHT31;56762;49.494;11.768;2023-11-22T10:51:26;3.20;78.46
69543;SHT31;56762;49.494;11.768;2023-11-22T10:53:58;3.31;78.21
69543;SHT31;56762;49.494;11.768;2023-11-22T10:56:33;3.42;76.65
69543;SHT31;56762;49.494;11.768;2023-11-22T10:59:07;3.42;79.74
69543;SHT31;56762;49.494;11.768;2023-11-22T11:01:36;3.36;76.57
69543;SHT31;56762;49.494;11.768;2023-11-22T11:04:08;3.28;75.51
69543;SHT31;56762;49.494;11.768;2023-11-22T11:06:38;3.34;75.94
69543;SHT31;56762;49.494;11.768;2023-11-22T11:09:08;3.52;83.19
69543;SHT31;56762;49.494;11.768;2023-11-22T11:11:39;3.38;74.44
69543;SHT31;56762;49.494;11.768;2023-11-22T11:14:08;3.30;75.12
69543;SHT31;56762;49.494;11.768;2023-11-22T11:16:39;3.32;78.67
69543;SHT31;56762;49.494;11.768;2023-11-22T11:19:08;3.25;75.21
69543;SHT31;56762;49.494;11.768;2023-11-22T11:21:38;3.15;76.03
69543;SHT31;56762;49.494;11.768;2023-11-22T11:24:06;3.04;77.54
69543;SHT31;56762;49.494;11.768;2023-11-22T11:26:35;2.99;76.47
69543;SHT31;56762;49.494;11.768;2023-11-22T11:29:04;3.01;76.89
69543;SHT31;56762;49.494;11.768;2023-11-22T11:31:34;2.99;78.12
69543;SHT31;56762;49.494;11.768;2023-11-22T11:34:07;2.99;76.90
69543;SHT31;56762;49.494;11.768;2023-11-22T11:36:37;3.01;77.49
69543;SHT31;56762;49.494;11.768;2023-11-22T11:39:07;2.86;77.05
69543;SHT31;56762;49.494;11.768;2023-11-22T11:41:42;2.90;78.63
69543;SHT31;56762;49.494;11.768;2023-11-22T11:44:11;2.84;77.54
69543;SHT31;56762;49.494;11.768;2023-11-22T11:46:40;3.10;77.64
69543;SHT31;56762;49.494;11.768;2023-11-22T11:49:12;3.10;76.78
69543;SHT31;56762;49.494;11.768;2023-11-22T11:51:41;3.32;81.82
69543;SHT31;56762;49.494;11.768;2023-11-22T11:54:09;3.62;80.75
69543;SHT31;56762;49.494;11.768;2023-11-22T11:56:40;3.35;75.78
69543;SHT31;56762;49.494;11.768;2023-11-22T11:59:09;3.65;82.84
69543;SHT31;56762;49.494;11.768;2023-11-22T12:01:42;3.93;81.16
69543;SHT31;56762;49.494;11.768;2023-11-22T12:04:10;4.38;81.26
69543;SHT31;56762;49.494;11.768;2023-11-22T12:06:38;4.51;77.67
69543;SHT31;56762;49.494;11.768;2023-11-22T12:09:06;4.55;76.71
69543;SHT31;56762;49.494;11.768;2023-11-22T12:11:35;4.47;73.99
69543;SHT31;56762;49.494;11.768;2023-11-22T12:14:03;4.34;73.96
69543;SHT31;56762;49.494;11.768;2023-11-22T12:16:31;4.36;76.12
69543;SHT31;56762;49.494;11.768;2023-11-22T12:19:02;4.00;73.12
69543;SHT31;56762;49.494;11.768;2023-11-22T12:21:30;3.61;74.57
69543;SHT31;56762;49.494;11.768;2023-11-22T12:23:58;3.48;75.14
69543;SHT31;56762;49.494;11.768;2023-11-22T12:26:26;3.58;75.84
69543;SHT31;56762;49.494;11.768;2023-11-22T12:28:55;3.45;75.32
69543;SHT31;56762;49.494;11.768;2023-11-22T12:31:31;3.15;76.36
69543;SHT31;56762;49.494;11.768;2023-11-22T12:34:04;3.35;79.34
69543;SHT31;56762;49.494;11.768;2023-11-22T12:36:33;3.56;82.31
69543;SHT31;56762;49.494;11.768;2023-11-22T12:39:06;3.92;80.50
69543;SHT31;56762;49.494;11.768;2023-11-22T12:41:35;3.92;75.91
69543;SHT31;56762;49.494;11.768;2023-11-22T12:44:04;3.85;79.65
69543;SHT31;56762;49.494;11.768;2023-11-22T12:46:45;3.79;77.37
69543;SHT31;56762;49.494;11.768;2023-11-22T12:49:17;3.70;75.71
69543;SHT31;56762;49.494;11.768;2023-11-22T12:51:47;4.04;83.94
69543;SHT31;56762;49.494;11.768;2023-11-22T12:54:14;3.94;75.96
69543;SHT31;56762;49.494;11.768;2023-11-22T12:56:43;3.65;74.61
69543;SHT31;56762;49.494;11.768;2023-11-22T12:59:11;3.42;76.09
69543;SHT31;56762;49.494;11.768;2023-11-22T13:01:40;3.41;78.06
69543;SHT31;56762;49.494;11.768;2023-11-22T13:04:08;3.52;80.70
69543;SHT31;56762;49.494;11.768;2023-11-22T13:06:38;3.32;76.69
69543;SHT31;56762;49.494;11.768;2023-11-22T13:09:06;3.22;77.34
69543;SHT31;56762;49.494;11.768;2023-11-22T13:11:34;3.25;78.96
69543;SHT31;56762;49.494;11.768;2023-11-22T13:14:02;3.32;78.44
69543;SHT31;56762;49.494;11.768;2023-11-22T13:16:30;3.63;81.01
69543;SHT31;56762;49.494;11.768;2023-11-22T13:18:58;3.62;76.10
69543;SHT31;56762;49.494;11.768;2023-11-22T13:21:26;3.76;76.97
69543;SHT31;56762;49.494;11.768;2023-11-22T13:23:56;3.93;77.64
69543;SHT31;56762;49.494;11.768;2023-11-22T13:26:25;3.93;75.88
69543;SHT31;56762;49.494;11.768;2023-11-22T13:28:53;3.92;75.68
69543;SHT31;56762;49.494;11.768;2023-11-22T13:31:22;3.96;77.64
69543;SHT31;56762;49.494;11.768;2023-11-22T13:33:51;3.79;73.94
69543;SHT31;56762;49.494;11.768;2023-11-22T13:36:18;3.70;74.94
69543;SHT31;56762;49.494;11.768;2023-11-22T13:38:46;3.68;75.09
69543;SHT31;56762;49.494;11.768;2023-11-22T13:41:16;3.59;74.85
69543;SHT31;56762;49.494;11.768;2023-11-22T13:43:43;3.48;75.87
69543;SHT31;56762;49.494;11.768;2023-11-22T13:46:13;3.36;74.89
69543;SHT31;56762;49.494;11.768;2023-11-22T13:48:42;3.39;75.30
69543;SHT31;56762;49.494;11.768;2023-11-22T13:51:10;3.39;74.62
69543;SHT31;56762;49.494;11.768;2023-11-22T13:53:38;3.46;76.14
69543;SHT31;56762;49.494;11.768;2023-11-22T13:56:10;3.54;75.93
69543;SHT31;56762;49.494;11.768;2023-11-22T13:58:42;3.52;75.50
69543;SHT31;56762;49.494;11.768;2023-11-22T14:01:11;3.54;75.80
69543;SHT31;56762;49.494;11.768;2023-11-22T14:03:43;3.65;75.51
69543;SHT31;56762;49.494;11.768;2023-11-22T14:06:11;3.78;78.56
69543;SHT31;56762;49.494;11.768;2023-11-22T14:08:43;3.78;75.62
69543;SHT31;56762;49.494;11.768;2023-11-22T14:11:11;3.73;75.18
69543;SHT31;56762;49.494;11.768;2023-11-22T14:13:39;3.72;74.99
69543;SHT31;56762;49.494;11.768;2023-11-22T14:16:09;3.72;74.66
69543;SHT31;56762;49.494;11.768;2023-11-22T14:18:37;3.66;73.26
69543;SHT31;56762;49.494;11.768;2023-11-22T14:21:05;3.54;73.03
69543;SHT31;56762;49.494;11.768;2023-11-22T14:23:33;3.46;74.24
69543;SHT31;56762;49.494;11.768;2023-11-22T14:26:01;3.42;75.30
69543;SHT31;56762;49.494;11.768;2023-11-22T14:28:29;3.36;75.17
69543;SHT31;56762;49.494;11.768;2023-11-22T14:30:57;3.25;74.54
69543;SHT31;56762;49.494;11.768;2023-11-22T14:33:26;3.27;74.75
69543;SHT31;56762;49.494;11.768;2023-11-22T14:35:58;3.14;74.07
69543;SHT31;56762;49.494;11.768;2023-11-22T14:38:27;3.05;74.87
69543;SHT31;56762;49.494;11.768;2023-11-22T14:40:55;2.97;74.42
69543;SHT31;56762;49.494;11.768;2023-11-22T14:43:23;3.03;76.39
69543;SHT31;56762;49.494;11.768;2023-11-22T14:45:51;3.07;74.65
69543;SHT31;56762;49.494;11.768;2023-11-22T14:48:20;3.07;76.01
69543;SHT31;56762;49.494;11.768;2023-11-22T14:50:51;3.11;76.63
69543;SHT31;56762;49.494;11.768;2023-11-22T14:53:24;3.17;75.76
69543;SHT31;56762;49.494;11.768;2023-11-22T14:56:25;3.18;75.36
69543;SHT31;56762;49.494;11.768;2023-11-22T14:59:45;3.20;75.05
69543;SHT31;56762;49.494;11.768;2023-11-22T15:02:15;3.24;74.74
69543;SHT31;56762;49.494;11.768;2023-11-22T15:04:45;3.21;74.66
69543;SHT31;56762;49.494;11.768;2023-11-22T15:07:20;3.22;75.35
69543;SHT31;56762;49.494;11.768;2023-11-22T15:09:48;3.17;74.86
69543;SHT31;56762;49.494;11.768;2023-11-22T15:12:16;3.30;75.74
69543;SHT31;56762;49.494;11.768;2023-11-22T15:14:52;3.28;75.38
69543;SHT31;56762;49.494;11.768;2023-11-22T15:17:21;3.28;73.87
69543;SHT31;56762;49.494;11.768;2023-11-22T15:19:49;3.22;74.90
69543;SHT31;56762;49.494;11.768;2023-11-22T15:22:18;3.28;75.63
69543;SHT31;56762;49.494;11.768;2023-11-22T15:24:46;3.31;75.28
69543;SHT31;56762;49.494;11.768;2023-11-22T15:27:14;3.34;76.14
69543;SHT31;56762;49.494;11.768;2023-11-22T15:29:42;3.38;75.88
69543;SHT31;56762;49.494;11.768;2023-11-22T15:32:12;3.38;75.93
69543;SHT31;56762;49.494;11.768;2023-11-22T15:34:40;3.48;77.35
69543;SHT31;56762;49.494;11.768;2023-11-22T15:37:11;3.45;75.80
69543;SHT31;56762;49.494;11.768;2023-11-22T15:39:40;3.46;75.87
69543;SHT31;56762;49.494;11.768;2023-11-22T15:42:08;3.42;76.40